sensor_id;sensor_type;location;lat;lon;timestamp;P1;durP1;ratioP1;P2;durP2;ratioP2
21110;SDS011;10713;51.912;4.494;2022-08-19T00:01:30;8.48;;;6.22;;
21110;SDS011;10713;51.912;4.494;2022-08-19T00:04:00;9.13;;;7.15;;
21110;SDS011;10713;51.912;4.494;2022-08-19T00:06:28;12.50;;;6.43;;
21110;SDS011;10713;51.912;4.494;2022-08-19T00:08:54;12.93;;;6.88;;
21110;SDS011;10713;51.912;4.494;2022-08-19T00:11:20;10.60;;;7.25;;
21110;SDS011;10713;51.912;4.494;2022-08-19T00:13:46;10.13;;;6.28;;
21110;SDS011;10713;51.912;4.494;2022-08-19T00:16:13;12.60;;;6.68;;
21110;SDS011;10713;51.912;4.494;2022-08-19T00:18:39;13.57;;;6.80;;
21110;SDS011;10713;51.912;4.494;2022-08-19T00:21:05;9.82;;;6.63;;
21110;SDS011;10713;51.912;4.494;2022-08-19T00:23:32;11.60;;;6.88;;
21110;SDS011;10713;51.912;4.494;2022-08-19T00:25:59;12.70;;;7.68;;
21110;SDS011;10713;51.912;4.494;2022-08-19T00:28:25;12.70;;;7.03;;
21110;SDS011;10713;51.912;4.494;2022-08-19T00:30:50;9.73;;;6.80;;
21110;SDS011;10713;51.912;4.494;2022-08-19T00:33:18;14.68;;;7.85;;
21110;SDS011;10713;51.912;4.494;2022-08-19T00:35:43;9.27;;;7.00;;
21110;SDS011;10713;51.912;4.494;2022-08-19T00:38:09;13.40;;;7.40;;
21110;SDS011;10713;51.912;4.494;2022-08-19T00:40:34;14.70;;;7.00;;
21110;SDS011;10713;51.912;4.494;2022-08-19T00:42:59;14.18;;;7.47;;
21110;SDS011;10713;51.912;4.494;2022-08-19T00:45:26;12.60;;;6.70;;
21110;SDS011;10713;51.912;4.494;2022-08-19T00:47:57;10.82;;;6.93;;
21110;SDS011;10713;51.912;4.494;2022-08-19T00:50:23;12.43;;;7.25;;
21110;SDS011;10713;51.912;4.494;2022-08-19T00:52:49;11.48;;;7.65;;
21110;SDS011;10713;51.912;4.494;2022-08-19T00:55:18;13.07;;;7.30;;
21110;SDS011;10713;51.912;4.494;2022-08-19T00:57:51;14.77;;;7.10;;
21110;SDS011;10713;51.912;4.494;2022-08-19T01:00:21;11.23;;;7.53;;
21110;SDS011;10713;51.912;4.494;2022-08-19T01:02:48;14.75;;;7.97;;
21110;SDS011;10713;51.912;4.494;2022-08-19T01:05:18;12.20;;;8.32;;
21110;SDS011;10713;51.912;4.494;2022-08-19T01:07:46;14.75;;;8.15;;
21110;SDS011;10713;51.912;4.494;2022-08-19T01:10:16;15.18;;;9.10;;
21110;SDS011;10713;51.912;4.494;2022-08-19T01:12:45;16.30;;;9.23;;
21110;SDS011;10713;51.912;4.494;2022-08-19T01:15:12;15.68;;;9.38;;
21110;SDS011;10713;51.912;4.494;2022-08-19T01:17:40;16.90;;;9.90;;
21110;SDS011;10713;51.912;4.494;2022-08-19T01:20:18;18.27;;;11.30;;
21110;SDS011;10713;51.912;4.494;2022-08-19T01:22:46;19.10;;;11.52;;
21110;SDS011;10713;51.912;4.494;2022-08-19T01:25:15;17.90;;;11.57;;
21110;SDS011;10713;51.912;4.494;2022-08-19T01:27:42;23.02;;;13.88;;
21110;SDS011;10713;51.912;4.494;2022-08-19T01:30:20;23.80;;;14.05;;
21110;SDS011;10713;51.912;4.494;2022-08-19T01:32:48;29.65;;;15.82;;
21110;SDS011;10713;51.912;4.494;2022-08-19T01:35:14;24.48;;;16.15;;
21110;SDS011;10713;51.912;4.494;2022-08-19T01:37:50;25.02;;;16.98;;
21110;SDS011;10713;51.912;4.494;2022-08-19T01:40:19;26.75;;;17.00;;
21110;SDS011;10713;51.912;4.494;2022-08-19T01:42:49;32.10;;;20.00;;
21110;SDS011;10713;51.912;4.494;2022-08-19T01:45:16;33.08;;;20.70;;
21110;SDS011;10713;51.912;4.494;2022-08-19T01:47:42;34.25;;;21.40;;
21110;SDS011;10713;51.912;4.494;2022-08-19T01:50:09;32.60;;;20.88;;
21110;SDS011;10713;51.912;4.494;2022-08-19T01:52:36;33.97;;;20.60;;
21110;SDS011;10713;51.912;4.494;2022-08-19T01:55:03;40.88;;;21.75;;
21110;SDS011;10713;51.912;4.494;2022-08-19T01:57:30;37.45;;;20.92;;
21110;SDS011;10713;51.912;4.494;2022-08-19T01:59:56;38.90;;;22.20;;
21110;SDS011;10713;51.912;4.494;2022-08-19T02:02:22;43.80;;;24.48;;
21110;SDS011;10713;51.912;4.494;2022-08-19T02:04:47;47.60;;;24.83;;
21110;SDS011;10713;51.912;4.494;2022-08-19T02:07:12;48.63;;;26.27;;
21110;SDS011;10713;51.912;4.494;2022-08-19T02:09:38;53.10;;;25.58;;
21110;SDS011;10713;51.912;4.494;2022-08-19T02:12:04;48.97;;;25.98;;
21110;SDS011;10713;51.912;4.494;2022-08-19T02:14:30;58.72;;;27.45;;
21110;SDS011;10713;51.912;4.494;2022-08-19T02:16:55;51.78;;;25.83;;
21110;SDS011;10713;51.912;4.494;2022-08-19T02:19:21;47.75;;;25.10;;
21110;SDS011;10713;51.912;4.494;2022-08-19T02:21:47;46.20;;;25.10;;
21110;SDS011;10713;51.912;4.494;2022-08-19T02:24:12;46.13;;;25.25;;
21110;SDS011;10713;51.912;4.494;2022-08-19T02:26:37;46.42;;;23.90;;
21110;SDS011;10713;51.912;4.494;2022-08-19T02:29:03;47.88;;;24.73;;
21110;SDS011;10713;51.912;4.494;2022-08-19T02:31:29;47.08;;;24.52;;
21110;SDS011;10713;51.912;4.494;2022-08-19T02:33:55;45.67;;;23.60;;
21110;SDS011;10713;51.912;4.494;2022-08-19T02:36:21;46.55;;;23.27;;
21110;SDS011;10713;51.912;4.494;2022-08-19T02:38:47;43.20;;;21.35;;
21110;SDS011;10713;51.912;4.494;2022-08-19T02:41:15;41.67;;;20.98;;
21110;SDS011;10713;51.912;4.494;2022-08-19T02:43:44;40.25;;;21.17;;
21110;SDS011;10713;51.912;4.494;2022-08-19T02:46:14;43.65;;;21.80;;
21110;SDS011;10713;51.912;4.494;2022-08-19T02:48:45;42.85;;;21.00;;
21110;SDS011;10713;51.912;4.494;2022-08-19T02:51:15;40.78;;;21.40;;
21110;SDS011;10713;51.912;4.494;2022-08-19T02:53:44;46.65;;;22.33;;
21110;SDS011;10713;51.912;4.494;2022-08-19T02:56:09;41.28;;;22.20;;
21110;SDS011;10713;51.912;4.494;2022-08-19T02:58:35;45.78;;;24.85;;
21110;SDS011;10713;51.912;4.494;2022-08-19T03:01:00;46.47;;;24.23;;
21110;SDS011;10713;51.912;4.494;2022-08-19T03:03:26;47.03;;;22.25;;
21110;SDS011;10713;51.912;4.494;2022-08-19T03:05:51;44.75;;;22.58;;
21110;SDS011;10713;51.912;4.494;2022-08-19T03:08:17;43.28;;;23.00;;
21110;SDS011;10713;51.912;4.494;2022-08-19T03:10:43;48.15;;;23.85;;
21110;SDS011;10713;51.912;4.494;2022-08-19T03:13:15;39.08;;;21.30;;
21110;SDS011;10713;51.912;4.494;2022-08-19T03:15:42;40.35;;;21.98;;
21110;SDS011;10713;51.912;4.494;2022-08-19T03:18:09;50.00;;;26.92;;
21110;SDS011;10713;51.912;4.494;2022-08-19T03:20:39;56.50;;;28.67;;
21110;SDS011;10713;51.912;4.494;2022-08-19T03:23:06;57.90;;;29.98;;
21110;SDS011;10713;51.912;4.494;2022-08-19T03:25:35;55.22;;;27.30;;
21110;SDS011;10713;51.912;4.494;2022-08-19T03:28:02;70.28;;;32.40;;
21110;SDS011;10713;51.912;4.494;2022-08-19T03:30:28;73.20;;;32.47;;
21110;SDS011;10713;51.912;4.494;2022-08-19T03:32:53;76.47;;;35.03;;
21110;SDS011;10713;51.912;4.494;2022-08-19T03:35:19;76.05;;;33.83;;
21110;SDS011;10713;51.912;4.494;2022-08-19T03:37:45;80.15;;;34.55;;
21110;SDS011;10713;51.912;4.494;2022-08-19T03:40:10;90.13;;;37.60;;
21110;SDS011;10713;51.912;4.494;2022-08-19T03:42:36;85.25;;;38.17;;
21110;SDS011;10713;51.912;4.494;2022-08-19T03:45:02;90.30;;;36.72;;
21110;SDS011;10713;51.912;4.494;2022-08-19T03:47:27;83.45;;;34.17;;
21110;SDS011;10713;51.912;4.494;2022-08-19T03:49:53;86.47;;;38.03;;
21110;SDS011;10713;51.912;4.494;2022-08-19T03:52:18;84.43;;;35.60;;
21110;SDS011;10713;51.912;4.494;2022-08-19T03:54:44;98.20;;;39.55;;
21110;SDS011;10713;51.912;4.494;2022-08-19T03:57:09;86.22;;;35.65;;
21110;SDS011;10713;51.912;4.494;2022-08-19T03:59:36;94.78;;;39.63;;
21110;SDS011;10713;51.912;4.494;2022-08-19T04:02:06;102.05;;;39.00;;
21110;SDS011;10713;51.912;4.494;2022-08-19T04:04:34;97.22;;;39.35;;
21110;SDS011;10713;51.912;4.494;2022-08-19T04:07:01;89.25;;;37.85;;
21110;SDS011;10713;51.912;4.494;2022-08-19T04:09:26;94.38;;;38.95;;
21110;SDS011;10713;51.912;4.494;2022-08-19T04:11:53;91.93;;;39.55;;
21110;SDS011;10713;51.912;4.494;2022-08-19T04:14:21;88.88;;;39.42;;
21110;SDS011;10713;51.912;4.494;2022-08-19T04:16:49;85.20;;;36.97;;
21110;SDS011;10713;51.912;4.494;2022-08-19T04:19:16;90.53;;;37.45;;
21110;SDS011;10713;51.912;4.494;2022-08-19T04:21:44;84.10;;;35.67;;
21110;SDS011;10713;51.912;4.494;2022-08-19T04:24:11;81.75;;;35.58;;
21110;SDS011;10713;51.912;4.494;2022-08-19T04:26:37;76.85;;;35.05;;
21110;SDS011;10713;51.912;4.494;2022-08-19T04:29:05;80.72;;;33.90;;
21110;SDS011;10713;51.912;4.494;2022-08-19T04:31:33;77.15;;;34.08;;
21110;SDS011;10713;51.912;4.494;2022-08-19T04:34:02;72.03;;;32.92;;
21110;SDS011;10713;51.912;4.494;2022-08-19T04:36:30;76.60;;;32.80;;
21110;SDS011;10713;51.912;4.494;2022-08-19T04:38:58;78.18;;;33.60;;
21110;SDS011;10713;51.912;4.494;2022-08-19T04:41:26;77.72;;;32.17;;
21110;SDS011;10713;51.912;4.494;2022-08-19T04:44:11;77.90;;;33.63;;
21110;SDS011;10713;51.912;4.494;2022-08-19T04:46:36;85.65;;;32.50;;
21110;SDS011;10713;51.912;4.494;2022-08-19T04:49:02;78.07;;;33.33;;
21110;SDS011;10713;51.912;4.494;2022-08-19T04:51:30;79.40;;;32.25;;
21110;SDS011;10713;51.912;4.494;2022-08-19T04:53:56;86.53;;;33.85;;
21110;SDS011;10713;51.912;4.494;2022-08-19T04:56:22;94.07;;;34.15;;
21110;SDS011;10713;51.912;4.494;2022-08-19T04:58:47;79.72;;;34.67;;
21110;SDS011;10713;51.912;4.494;2022-08-19T05:01:20;82.07;;;34.40;;
21110;SDS011;10713;51.912;4.494;2022-08-19T05:03:47;78.95;;;34.50;;
21110;SDS011;10713;51.912;4.494;2022-08-19T05:06:14;73.68;;;31.92;;
21110;SDS011;10713;51.912;4.494;2022-08-19T05:08:41;70.35;;;32.28;;
21110;SDS011;10713;51.912;4.494;2022-08-19T05:11:12;68.38;;;30.83;;
21110;SDS011;10713;51.912;4.494;2022-08-19T05:13:40;72.82;;;29.95;;
21110;SDS011;10713;51.912;4.494;2022-08-19T05:16:07;73.55;;;29.77;;
21110;SDS011;10713;51.912;4.494;2022-08-19T05:18:32;72.43;;;30.30;;
21110;SDS011;10713;51.912;4.494;2022-08-19T05:21:18;60.70;;;28.45;;
21110;SDS011;10713;51.912;4.494;2022-08-19T05:24:04;57.45;;;26.20;;
21110;SDS011;10713;51.912;4.494;2022-08-19T05:26:34;53.08;;;26.05;;
21110;SDS011;10713;51.912;4.494;2022-08-19T05:29:04;56.85;;;26.10;;
21110;SDS011;10713;51.912;4.494;2022-08-19T05:31:30;61.28;;;27.40;;
21110;SDS011;10713;51.912;4.494;2022-08-19T05:33:56;58.42;;;27.38;;
21110;SDS011;10713;51.912;4.494;2022-08-19T05:36:24;61.20;;;27.70;;
21110;SDS011;10713;51.912;4.494;2022-08-19T05:38:53;71.75;;;25.73;;
21110;SDS011;10713;51.912;4.494;2022-08-19T05:41:19;53.08;;;25.35;;
21110;SDS011;10713;51.912;4.494;2022-08-19T05:43:45;54.38;;;25.58;;
21110;SDS011;10713;51.912;4.494;2022-08-19T05:46:16;62.30;;;26.17;;
21110;SDS011;10713;51.912;4.494;2022-08-19T05:48:43;54.55;;;26.08;;
21110;SDS011;10713;51.912;4.494;2022-08-19T05:51:08;56.55;;;24.50;;
21110;SDS011;10713;51.912;4.494;2022-08-19T05:53:34;54.20;;;26.02;;
21110;SDS011;10713;51.912;4.494;2022-08-19T05:56:07;55.53;;;26.13;;
21110;SDS011;10713;51.912;4.494;2022-08-19T05:58:34;54.97;;;24.08;;
21110;SDS011;10713;51.912;4.494;2022-08-19T06:01:00;48.22;;;23.30;;
21110;SDS011;10713;51.912;4.494;2022-08-19T06:03:29;46.33;;;22.42;;
21110;SDS011;10713;51.912;4.494;2022-08-19T06:05:57;48.53;;;22.58;;
21110;SDS011;10713;51.912;4.494;2022-08-19T06:08:24;44.17;;;23.73;;
21110;SDS011;10713;51.912;4.494;2022-08-19T06:10:49;42.20;;;23.08;;
21110;SDS011;10713;51.912;4.494;2022-08-19T06:13:15;37.55;;;21.15;;
21110;SDS011;10713;51.912;4.494;2022-08-19T06:15:40;37.83;;;20.17;;
21110;SDS011;10713;51.912;4.494;2022-08-19T06:18:08;35.65;;;18.83;;
21110;SDS011;10713;51.912;4.494;2022-08-19T06:20:34;35.10;;;18.60;;
21110;SDS011;10713;51.912;4.494;2022-08-19T06:22:59;35.80;;;19.15;;
21110;SDS011;10713;51.912;4.494;2022-08-19T06:25:24;37.80;;;19.33;;
21110;SDS011;10713;51.912;4.494;2022-08-19T06:27:50;32.30;;;19.15;;
21110;SDS011;10713;51.912;4.494;2022-08-19T06:30:15;35.78;;;19.27;;
21110;SDS011;10713;51.912;4.494;2022-08-19T06:32:41;34.53;;;19.17;;
21110;SDS011;10713;51.912;4.494;2022-08-19T06:35:06;37.58;;;18.77;;
21110;SDS011;10713;51.912;4.494;2022-08-19T06:37:32;36.63;;;18.17;;
21110;SDS011;10713;51.912;4.494;2022-08-19T06:39:58;33.22;;;18.38;;
21110;SDS011;10713;51.912;4.494;2022-08-19T06:42:23;37.08;;;19.95;;
21110;SDS011;10713;51.912;4.494;2022-08-19T06:44:49;40.00;;;19.35;;
21110;SDS011;10713;51.912;4.494;2022-08-19T06:47:15;37.92;;;19.58;;
21110;SDS011;10713;51.912;4.494;2022-08-19T06:49:43;38.25;;;20.52;;
21110;SDS011;10713;51.912;4.494;2022-08-19T06:52:09;43.08;;;20.77;;
21110;SDS011;10713;51.912;4.494;2022-08-19T06:54:40;41.53;;;20.40;;
21110;SDS011;10713;51.912;4.494;2022-08-19T06:57:07;40.70;;;21.58;;
21110;SDS011;10713;51.912;4.494;2022-08-19T06:59:38;44.50;;;21.30;;
21110;SDS011;10713;51.912;4.494;2022-08-19T07:02:04;52.33;;;22.50;;
21110;SDS011;10713;51.912;4.494;2022-08-19T07:04:31;42.08;;;20.73;;
21110;SDS011;10713;51.912;4.494;2022-08-19T07:06:59;40.63;;;20.20;;
21110;SDS011;10713;51.912;4.494;2022-08-19T07:09:32;39.35;;;20.75;;
21110;SDS011;10713;51.912;4.494;2022-08-19T07:11:58;40.97;;;20.70;;
21110;SDS011;10713;51.912;4.494;2022-08-19T07:14:25;45.90;;;22.25;;
21110;SDS011;10713;51.912;4.494;2022-08-19T07:16:53;43.22;;;20.50;;
21110;SDS011;10713;51.912;4.494;2022-08-19T07:19:20;34.45;;;19.50;;
21110;SDS011;10713;51.912;4.494;2022-08-19T07:21:47;35.55;;;19.83;;
21110;SDS011;10713;51.912;4.494;2022-08-19T07:24:14;44.15;;;20.48;;
21110;SDS011;10713;51.912;4.494;2022-08-19T07:26:40;34.05;;;19.40;;
21110;SDS011;10713;51.912;4.494;2022-08-19T07:29:07;37.33;;;18.38;;
21110;SDS011;10713;51.912;4.494;2022-08-19T07:31:33;39.75;;;18.10;;
21110;SDS011;10713;51.912;4.494;2022-08-19T07:34:06;33.80;;;18.73;;
21110;SDS011;10713;51.912;4.494;2022-08-19T07:36:37;36.88;;;18.10;;
21110;SDS011;10713;51.912;4.494;2022-08-19T07:39:07;36.45;;;18.40;;
21110;SDS011;10713;51.912;4.494;2022-08-19T07:41:34;36.20;;;19.05;;
21110;SDS011;10713;51.912;4.494;2022-08-19T07:44:02;36.15;;;18.52;;
21110;SDS011;10713;51.912;4.494;2022-08-19T07:46:31;31.17;;;17.23;;
21110;SDS011;10713;51.912;4.494;2022-08-19T07:48:58;32.28;;;17.58;;
21110;SDS011;10713;51.912;4.494;2022-08-19T07:51:25;37.10;;;18.30;;
21110;SDS011;10713;51.912;4.494;2022-08-19T07:53:51;38.35;;;20.63;;
21110;SDS011;10713;51.912;4.494;2022-08-19T07:56:18;38.63;;;19.23;;
21110;SDS011;10713;51.912;4.494;2022-08-19T07:58:44;38.13;;;20.73;;
21110;SDS011;10713;51.912;4.494;2022-08-19T08:01:13;28.48;;;18.13;;
21110;SDS011;10713;51.912;4.494;2022-08-19T08:03:44;36.03;;;19.20;;
21110;SDS011;10713;51.912;4.494;2022-08-19T08:06:28;39.70;;;18.00;;
21110;SDS011;10713;51.912;4.494;2022-08-19T08:09:12;32.97;;;16.80;;
21110;SDS011;10713;51.912;4.494;2022-08-19T08:11:49;32.65;;;17.40;;
21110;SDS011;10713;51.912;4.494;2022-08-19T08:14:19;29.65;;;17.30;;
21110;SDS011;10713;51.912;4.494;2022-08-19T08:16:48;28.95;;;15.52;;
21110;SDS011;10713;51.912;4.494;2022-08-19T08:19:15;33.00;;;17.88;;
21110;SDS011;10713;51.912;4.494;2022-08-19T08:21:42;34.65;;;17.33;;
21110;SDS011;10713;51.912;4.494;2022-08-19T08:24:09;33.63;;;16.23;;
21110;SDS011;10713;51.912;4.494;2022-08-19T08:26:35;27.70;;;15.50;;
21110;SDS011;10713;51.912;4.494;2022-08-19T08:29:00;30.10;;;15.50;;
21110;SDS011;10713;51.912;4.494;2022-08-19T08:31:26;31.45;;;16.08;;
21110;SDS011;10713;51.912;4.494;2022-08-19T08:33:51;26.92;;;14.25;;
21110;SDS011;10713;51.912;4.494;2022-08-19T08:36:17;24.02;;;13.27;;
21110;SDS011;10713;51.912;4.494;2022-08-19T08:38:43;24.50;;;14.00;;
21110;SDS011;10713;51.912;4.494;2022-08-19T08:43:56;24.25;;;13.80;;
21110;SDS011;10713;51.912;4.494;2022-08-19T08:46:38;26.00;;;12.80;;
21110;SDS011;10713;51.912;4.494;2022-08-19T08:51:59;19.50;;;11.32;;
21110;SDS011;10713;51.912;4.494;2022-08-19T08:54:54;18.83;;;11.88;;
21110;SDS011;10713;51.912;4.494;2022-08-19T08:59:57;21.55;;;11.70;;
21110;SDS011;10713;51.912;4.494;2022-08-19T09:02:30;23.10;;;12.13;;
21110;SDS011;10713;51.912;4.494;2022-08-19T09:04:55;16.17;;;9.77;;
21110;SDS011;10713;51.912;4.494;2022-08-19T09:15:38;20.52;;;9.85;;
21110;SDS011;10713;51.912;4.494;2022-08-19T09:18:09;18.52;;;11.05;;
21110;SDS011;10713;51.912;4.494;2022-08-19T09:20:36;20.13;;;11.57;;
21110;SDS011;10713;51.912;4.494;2022-08-19T09:23:01;20.85;;;10.73;;
21110;SDS011;10713;51.912;4.494;2022-08-19T09:25:27;16.85;;;9.38;;
21110;SDS011;10713;51.912;4.494;2022-08-19T09:27:53;16.85;;;9.90;;
21110;SDS011;10713;51.912;4.494;2022-08-19T09:30:25;18.35;;;9.80;;
21110;SDS011;10713;51.912;4.494;2022-08-19T09:32:52;16.92;;;9.25;;
21110;SDS011;10713;51.912;4.494;2022-08-19T09:35:20;16.38;;;8.55;;
21110;SDS011;10713;51.912;4.494;2022-08-19T09:37:47;13.73;;;8.15;;
21110;SDS011;10713;51.912;4.494;2022-08-19T09:40:14;18.05;;;8.05;;
21110;SDS011;10713;51.912;4.494;2022-08-19T09:42:39;18.10;;;8.68;;
21110;SDS011;10713;51.912;4.494;2022-08-19T09:45:05;13.85;;;7.43;;
21110;SDS011;10713;51.912;4.494;2022-08-19T09:47:30;12.52;;;7.20;;
21110;SDS011;10713;51.912;4.494;2022-08-19T09:49:57;17.15;;;7.57;;
21110;SDS011;10713;51.912;4.494;2022-08-19T09:52:22;14.32;;;7.13;;
21110;SDS011;10713;51.912;4.494;2022-08-19T09:54:51;13.88;;;6.13;;
21110;SDS011;10713;51.912;4.494;2022-08-19T09:57:17;10.55;;;5.72;;
21110;SDS011;10713;51.912;4.494;2022-08-19T09:59:42;18.38;;;6.10;;
21110;SDS011;10713;51.912;4.494;2022-08-19T10:02:09;12.45;;;5.60;;
21110;SDS011;10713;51.912;4.494;2022-08-19T10:04:34;9.77;;;5.70;;
21110;SDS011;10713;51.912;4.494;2022-08-19T10:07:18;10.27;;;5.75;;
21110;SDS011;10713;51.912;4.494;2022-08-19T10:09:43;14.05;;;6.03;;
21110;SDS011;10713;51.912;4.494;2022-08-19T10:12:09;12.18;;;6.18;;
21110;SDS011;10713;51.912;4.494;2022-08-19T10:14:34;57.00;;;10.13;;
21110;SDS011;10713;51.912;4.494;2022-08-19T10:17:00;10.93;;;5.40;;
21110;SDS011;10713;51.912;4.494;2022-08-19T10:19:27;12.25;;;5.38;;
21110;SDS011;10713;51.912;4.494;2022-08-19T10:21:53;11.13;;;5.45;;
21110;SDS011;10713;51.912;4.494;2022-08-19T10:24:19;14.80;;;5.82;;
21110;SDS011;10713;51.912;4.494;2022-08-19T10:26:45;13.32;;;5.47;;
21110;SDS011;10713;51.912;4.494;2022-08-19T10:29:13;11.68;;;5.18;;
21110;SDS011;10713;51.912;4.494;2022-08-19T10:31:40;8.35;;;4.95;;
21110;SDS011;10713;51.912;4.494;2022-08-19T10:34:06;8.80;;;4.40;;
21110;SDS011;10713;51.912;4.494;2022-08-19T10:36:32;18.45;;;5.70;;
21110;SDS011;10713;51.912;4.494;2022-08-19T10:39:01;11.95;;;3.90;;
21110;SDS011;10713;51.912;4.494;2022-08-19T10:41:30;11.98;;;4.63;;
21110;SDS011;10713;51.912;4.494;2022-08-19T10:43:58;9.32;;;4.60;;
21110;SDS011;10713;51.912;4.494;2022-08-19T10:46:26;11.55;;;3.75;;
21110;SDS011;10713;51.912;4.494;2022-08-19T10:48:53;15.88;;;4.50;;
21110;SDS011;10713;51.912;4.494;2022-08-19T10:51:19;37.85;;;5.35;;
21110;SDS011;10713;51.912;4.494;2022-08-19T10:54:03;15.38;;;3.90;;
21110;SDS011;10713;51.912;4.494;2022-08-19T10:56:29;8.60;;;4.00;;
21110;SDS011;10713;51.912;4.494;2022-08-19T10:59:15;12.02;;;3.85;;
21110;SDS011;10713;51.912;4.494;2022-08-19T11:01:43;5.93;;;3.40;;
21110;SDS011;10713;51.912;4.494;2022-08-19T11:04:09;4.78;;;2.55;;
21110;SDS011;10713;51.912;4.494;2022-08-19T11:06:36;15.10;;;3.40;;
21110;SDS011;10713;51.912;4.494;2022-08-19T11:09:03;4.13;;;2.70;;
21110;SDS011;10713;51.912;4.494;2022-08-19T11:11:30;7.50;;;2.90;;
21110;SDS011;10713;51.912;4.494;2022-08-19T11:13:57;8.82;;;2.83;;
21110;SDS011;10713;51.912;4.494;2022-08-19T11:16:23;11.13;;;2.80;;
21110;SDS011;10713;51.912;4.494;2022-08-19T11:18:56;7.82;;;2.70;;
21110;SDS011;10713;51.912;4.494;2022-08-19T11:21:27;6.85;;;2.25;;
21110;SDS011;10713;51.912;4.494;2022-08-19T11:23:58;9.45;;;2.90;;
21110;SDS011;10713;51.912;4.494;2022-08-19T11:26:26;12.50;;;2.95;;
21110;SDS011;10713;51.912;4.494;2022-08-19T11:28:53;10.35;;;2.97;;
21110;SDS011;10713;51.912;4.494;2022-08-19T11:31:20;16.00;;;3.67;;
21110;SDS011;10713;51.912;4.494;2022-08-19T11:33:48;16.65;;;3.35;;
21110;SDS011;10713;51.912;4.494;2022-08-19T11:36:17;12.25;;;2.78;;
21110;SDS011;10713;51.912;4.494;2022-08-19T11:38:44;18.10;;;3.50;;
21110;SDS011;10713;51.912;4.494;2022-08-19T11:41:10;7.40;;;2.85;;
21110;SDS011;10713;51.912;4.494;2022-08-19T11:43:36;5.00;;;2.70;;
21110;SDS011;10713;51.912;4.494;2022-08-19T11:46:06;8.27;;;3.10;;
21110;SDS011;10713;51.912;4.494;2022-08-19T11:48:33;22.08;;;3.75;;
21110;SDS011;10713;51.912;4.494;2022-08-19T11:50:58;9.52;;;3.40;;
21110;SDS011;10713;51.912;4.494;2022-08-19T11:53:24;19.17;;;2.85;;
21110;SDS011;10713;51.912;4.494;2022-08-19T11:55:50;26.45;;;3.60;;
21110;SDS011;10713;51.912;4.494;2022-08-19T11:58:21;21.95;;;3.42;;
21110;SDS011;10713;51.912;4.494;2022-08-19T12:00:47;14.18;;;3.05;;
21110;SDS011;10713;51.912;4.494;2022-08-19T12:03:12;13.63;;;2.60;;
21110;SDS011;10713;51.912;4.494;2022-08-19T12:05:39;9.40;;;2.95;;
21110;SDS011;10713;51.912;4.494;2022-08-19T12:08:05;17.10;;;3.50;;
21110;SDS011;10713;51.912;4.494;2022-08-19T12:10:32;13.60;;;3.50;;
21110;SDS011;10713;51.912;4.494;2022-08-19T12:12:57;18.70;;;3.78;;
21110;SDS011;10713;51.912;4.494;2022-08-19T12:15:23;23.23;;;3.85;;
21110;SDS011;10713;51.912;4.494;2022-08-19T12:17:48;9.90;;;3.00;;
21110;SDS011;10713;51.912;4.494;2022-08-19T12:20:14;8.35;;;3.20;;
21110;SDS011;10713;51.912;4.494;2022-08-19T12:22:42;15.98;;;3.28;;
21110;SDS011;10713;51.912;4.494;2022-08-19T12:25:09;7.28;;;2.75;;
21110;SDS011;10713;51.912;4.494;2022-08-19T12:27:35;9.18;;;2.90;;
21110;SDS011;10713;51.912;4.494;2022-08-19T12:30:02;5.45;;;2.90;;
21110;SDS011;10713;51.912;4.494;2022-08-19T12:32:28;5.50;;;2.70;;
21110;SDS011;10713;51.912;4.494;2022-08-19T12:34:54;9.57;;;2.70;;
21110;SDS011;10713;51.912;4.494;2022-08-19T12:37:19;8.82;;;3.65;;
21110;SDS011;10713;51.912;4.494;2022-08-19T12:39:45;5.75;;;2.70;;
21110;SDS011;10713;51.912;4.494;2022-08-19T12:42:11;6.60;;;2.58;;
21110;SDS011;10713;51.912;4.494;2022-08-19T12:44:38;5.00;;;2.47;;
21110;SDS011;10713;51.912;4.494;2022-08-19T12:47:05;5.53;;;2.40;;
21110;SDS011;10713;51.912;4.494;2022-08-19T12:49:32;6.03;;;2.30;;
21110;SDS011;10713;51.912;4.494;2022-08-19T12:51:59;6.53;;;2.88;;
21110;SDS011;10713;51.912;4.494;2022-08-19T12:54:25;5.47;;;2.78;;
21110;SDS011;10713;51.912;4.494;2022-08-19T12:56:51;6.80;;;2.78;;
21110;SDS011;10713;51.912;4.494;2022-08-19T12:59:16;10.38;;;3.15;;
21110;SDS011;10713;51.912;4.494;2022-08-19T13:01:43;10.32;;;5.47;;
21110;SDS011;10713;51.912;4.494;2022-08-19T13:04:09;13.23;;;7.28;;
21110;SDS011;10713;51.912;4.494;2022-08-19T13:06:35;12.50;;;7.65;;
21110;SDS011;10713;51.912;4.494;2022-08-19T13:09:02;11.43;;;7.30;;
21110;SDS011;10713;51.912;4.494;2022-08-19T13:11:28;13.68;;;7.30;;
21110;SDS011;10713;51.912;4.494;2022-08-19T13:13:57;8.80;;;5.50;;
21110;SDS011;10713;51.912;4.494;2022-08-19T13:16:23;9.85;;;4.40;;
21110;SDS011;10713;51.912;4.494;2022-08-19T13:18:49;12.10;;;7.35;;
21110;SDS011;10713;51.912;4.494;2022-08-19T13:21:17;16.20;;;8.15;;
21110;SDS011;10713;51.912;4.494;2022-08-19T13:23:45;14.13;;;7.78;;
21110;SDS011;10713;51.912;4.494;2022-08-19T13:26:13;16.15;;;7.65;;
21110;SDS011;10713;51.912;4.494;2022-08-19T13:28:39;12.93;;;7.80;;
21110;SDS011;10713;51.912;4.494;2022-08-19T13:31:25;14.05;;;8.35;;
21110;SDS011;10713;51.912;4.494;2022-08-19T13:34:11;12.55;;;6.80;;
21110;SDS011;10713;51.912;4.494;2022-08-19T13:36:37;10.32;;;6.43;;
21110;SDS011;10713;51.912;4.494;2022-08-19T13:39:04;9.23;;;6.32;;
21110;SDS011;10713;51.912;4.494;2022-08-19T13:41:30;10.20;;;6.53;;
21110;SDS011;10713;51.912;4.494;2022-08-19T13:43:56;10.75;;;6.72;;
21110;SDS011;10713;51.912;4.494;2022-08-19T13:46:22;9.80;;;6.28;;
21110;SDS011;10713;51.912;4.494;2022-08-19T13:48:47;7.85;;;4.80;;
21110;SDS011;10713;51.912;4.494;2022-08-19T13:51:13;8.80;;;5.38;;
21110;SDS011;10713;51.912;4.494;2022-08-19T13:53:41;12.20;;;7.32;;
21110;SDS011;10713;51.912;4.494;2022-08-19T13:56:08;15.15;;;7.32;;
21110;SDS011;10713;51.912;4.494;2022-08-19T13:58:35;12.05;;;5.55;;
21110;SDS011;10713;51.912;4.494;2022-08-19T14:01:02;9.52;;;3.22;;
21110;SDS011;10713;51.912;4.494;2022-08-19T14:03:28;11.07;;;4.13;;
21110;SDS011;10713;51.912;4.494;2022-08-19T14:05:53;6.32;;;3.20;;
21110;SDS011;10713;51.912;4.494;2022-08-19T14:08:18;5.40;;;2.40;;
21110;SDS011;10713;51.912;4.494;2022-08-19T14:10:44;4.65;;;2.03;;
21110;SDS011;10713;51.912;4.494;2022-08-19T14:13:12;7.13;;;2.22;;
21110;SDS011;10713;51.912;4.494;2022-08-19T14:15:39;4.60;;;2.30;;
21110;SDS011;10713;51.912;4.494;2022-08-19T14:18:05;7.43;;;2.55;;
21110;SDS011;10713;51.912;4.494;2022-08-19T14:20:30;3.25;;;1.85;;
21110;SDS011;10713;51.912;4.494;2022-08-19T14:22:59;9.20;;;2.58;;
21110;SDS011;10713;51.912;4.494;2022-08-19T14:25:26;7.75;;;3.15;;
21110;SDS011;10713;51.912;4.494;2022-08-19T14:27:54;6.82;;;2.22;;
21110;SDS011;10713;51.912;4.494;2022-08-19T14:30:24;4.05;;;1.88;;
21110;SDS011;10713;51.912;4.494;2022-08-19T14:32:52;4.13;;;2.20;;
21110;SDS011;10713;51.912;4.494;2022-08-19T14:35:23;5.22;;;1.98;;
21110;SDS011;10713;51.912;4.494;2022-08-19T14:37:49;4.95;;;2.00;;
21110;SDS011;10713;51.912;4.494;2022-08-19T14:40:16;7.15;;;2.17;;
21110;SDS011;10713;51.912;4.494;2022-08-19T14:42:46;3.72;;;2.05;;
21110;SDS011;10713;51.912;4.494;2022-08-19T14:45:13;5.47;;;2.30;;
21110;SDS011;10713;51.912;4.494;2022-08-19T14:47:38;9.63;;;3.30;;
21110;SDS011;10713;51.912;4.494;2022-08-19T14:50:08;8.40;;;2.45;;